createdAt,value
2023-07-27T00:01:19.159Z,6.96
2023-07-27T00:03:45.441Z,6.80
2023-07-27T00:06:11.606Z,6.76
2023-07-27T00:08:37.767Z,6.75
2023-07-27T00:11:03.929Z,6.58
2023-07-27T00:13:30.108Z,6.48
2023-07-27T00:15:56.274Z,6.38
2023-07-27T00:18:22.452Z,6.40
2023-07-27T00:20:48.609Z,6.60
2023-07-27T00:23:14.784Z,6.33
2023-07-27T00:25:40.948Z,6.44
2023-07-27T00:28:07.121Z,6.40
2023-07-27T00:30:33.303Z,6.35
2023-07-27T00:32:59.497Z,6.35
2023-07-27T00:35:25.701Z,6.43
2023-07-27T00:37:51.869Z,6.41
2023-07-27T00:40:18.038Z,6.50
2023-07-27T00:42:44.188Z,6.36
2023-07-27T00:45:10.371Z,6.22
2023-07-27T00:47:36.548Z,6.36
2023-07-27T00:50:02.753Z,6.26
2023-07-27T00:52:28.905Z,6.25
2023-07-27T00:54:55.176Z,6.22
2023-07-27T00:57:21.355Z,6.41
2023-07-27T00:59:47.515Z,6.12
2023-07-27T01:02:13.682Z,5.96
2023-07-27T01:04:39.838Z,6.05
2023-07-27T01:07:06.025Z,6.02
2023-07-27T01:09:32.197Z,6.06
2023-07-27T01:11:58.397Z,6.17
2023-07-27T01:14:24.561Z,6.26
2023-07-27T01:16:50.812Z,6.10
2023-07-27T01:19:17.078Z,6.13
2023-07-27T01:21:43.272Z,6.08
2023-07-27T01:24:09.433Z,6.19
2023-07-27T01:26:35.772Z,6.08
2023-07-27T01:29:02.072Z,6.23
2023-07-27T01:31:28.286Z,6.53
2023-07-27T01:33:54.456Z,6.50
2023-07-27T01:36:20.621Z,6.45
2023-07-27T01:38:46.780Z,6.59
2023-07-27T01:41:12.979Z,6.48
2023-07-27T01:43:39.153Z,6.32
2023-07-27T01:46:05.402Z,6.20
2023-07-27T01:48:31.592Z,6.09
2023-07-27T01:50:57.741Z,6.46
2023-07-27T01:53:23.928Z,6.46
2023-07-27T01:55:50.087Z,6.28
2023-07-27T01:58:16.250Z,6.18
2023-07-27T02:00:42.463Z,6.28
2023-07-27T02:03:08.718Z,6.46
2023-07-27T02:05:35.340Z,6.17
2023-07-27T02:08:01.511Z,5.99
2023-07-27T02:10:27.830Z,5.96
2023-07-27T02:12:53.983Z,6.05
2023-07-27T02:15:20.148Z,5.97
2023-07-27T02:17:46.368Z,6.14
2023-07-27T02:20:12.559Z,5.97
2023-07-27T02:22:38.722Z,5.87
2023-07-27T02:25:04.904Z,5.82
2023-07-27T02:27:31.070Z,5.92
2023-07-27T02:29:57.251Z,5.89
2023-07-27T02:32:23.447Z,5.81
2023-07-27T02:34:49.651Z,5.90
2023-07-27T02:37:15.828Z,5.82
2023-07-27T02:39:41.988Z,5.99
2023-07-27T02:42:08.156Z,5.79
2023-07-27T02:44:34.351Z,5.74
2023-07-27T02:47:00.509Z,5.83
2023-07-27T02:49:26.671Z,5.90
2023-07-27T02:51:52.826Z,5.97
2023-07-27T02:54:18.982Z,6.10
2023-07-27T02:56:45.165Z,6.01
2023-07-27T02:59:11.329Z,5.84
2023-07-27T03:01:37.531Z,5.85
2023-07-27T03:04:03.756Z,5.96
2023-07-27T03:06:29.930Z,6.03
2023-07-27T03:08:56.110Z,6.04
2023-07-27T03:11:22.276Z,6.05
2023-07-27T03:13:48.455Z,6.11
2023-07-27T03:16:14.618Z,6.01
2023-07-27T03:18:40.771Z,5.99
2023-07-27T03:21:06.950Z,6.00
2023-07-27T03:23:33.153Z,5.88
2023-07-27T03:25:59.340Z,5.82
2023-07-27T03:28:25.488Z,5.69
2023-07-27T03:30:51.674Z,5.69
2023-07-27T03:33:17.844Z,5.73
2023-07-27T03:35:43.995Z,5.83
2023-07-27T03:38:10.171Z,5.84
2023-07-27T03:40:36.395Z,5.92
2023-07-27T03:43:02.565Z,5.90
2023-07-27T03:45:28.712Z,5.60
2023-07-27T03:47:54.933Z,5.69
2023-07-27T03:50:21.150Z,5.88
2023-07-27T03:52:47.341Z,5.74
2023-07-27T03:55:13.569Z,5.66
2023-07-27T03:57:39.765Z,5.60
2023-07-27T04:00:06.060Z,5.78
2023-07-27T04:02:32.286Z,5.67
2023-07-27T04:04:58.520Z,5.51
2023-07-27T04:07:24.687Z,5.54
2023-07-27T04:09:50.879Z,5.79
2023-07-27T04:12:17.042Z,5.73
2023-07-27T04:14:43.203Z,5.87
2023-07-27T04:17:09.393Z,5.89
2023-07-27T04:19:35.566Z,5.83
2023-07-27T04:22:01.843Z,5.86
2023-07-27T04:24:28.027Z,5.91
2023-07-27T04:26:54.196Z,6.09
2023-07-27T04:29:20.352Z,6.14
2023-07-27T04:31:46.509Z,6.06
2023-07-27T04:34:12.712Z,6.39
2023-07-27T04:36:38.867Z,6.36
2023-07-27T04:39:05.049Z,6.57
2023-07-27T04:41:31.197Z,6.32
2023-07-27T04:43:57.890Z,6.38
2023-07-27T04:46:24.108Z,6.19
2023-07-27T04:48:50.318Z,6.25
2023-07-27T04:51:16.492Z,6.22
2023-07-27T04:53:42.661Z,6.44
2023-07-27T04:56:08.852Z,6.59
2023-07-27T04:58:35.028Z,6.58
2023-07-27T05:01:01.199Z,6.37
2023-07-27T05:03:27.353Z,6.28
2023-07-27T05:05:53.535Z,6.19
2023-07-27T05:08:19.717Z,6.26
2023-07-27T05:10:45.919Z,6.55
2023-07-27T05:13:12.087Z,6.52
2023-07-27T05:15:38.262Z,6.57
2023-07-27T05:18:04.430Z,6.64
2023-07-27T05:20:30.617Z,6.77
2023-07-27T05:22:56.788Z,6.86
2023-07-27T05:25:22.965Z,7.21
2023-07-27T05:27:49.147Z,7.52
2023-07-27T05:30:15.309Z,7.67
2023-07-27T05:32:41.478Z,7.74
2023-07-27T05:35:07.664Z,7.71
2023-07-27T05:37:33.862Z,7.74
2023-07-27T05:40:00.052Z,7.74
2023-07-27T05:42:26.237Z,7.79
2023-07-27T05:44:52.408Z,8.15
2023-07-27T05:47:18.569Z,7.71
2023-07-27T05:49:44.729Z,7.22
2023-07-27T05:52:10.909Z,8.21
2023-07-27T05:54:37.072Z,8.54
2023-07-27T05:57:03.253Z,8.73
2023-07-27T05:59:29.415Z,8.91
2023-07-27T06:01:55.630Z,9.28
2023-07-27T06:04:21.881Z,9.19
2023-07-27T06:06:48.077Z,9.25
2023-07-27T06:09:14.239Z,9.34
2023-07-27T06:11:40.397Z,9.38
2023-07-27T06:14:06.588Z,9.61
2023-07-27T06:16:33.119Z,9.61
2023-07-27T06:18:59.560Z,9.69
2023-07-27T06:21:25.725Z,9.85
2023-07-27T06:23:51.888Z,10.06
2023-07-27T06:26:18.063Z,9.56
2023-07-27T06:28:44.290Z,9.23
2023-07-27T06:31:10.483Z,9.30
2023-07-27T06:33:36.669Z,9.71
2023-07-27T06:36:02.846Z,9.75
2023-07-27T06:38:29.049Z,9.56
2023-07-27T06:40:55.241Z,9.93
2023-07-27T06:43:21.394Z,10.41
2023-07-27T06:45:47.562Z,10.99
2023-07-27T06:48:13.856Z,10.87
2023-07-27T06:50:40.229Z,10.35
2023-07-27T06:53:06.403Z,10.79
2023-07-27T06:55:32.563Z,10.96
2023-07-27T06:57:58.726Z,11.21
2023-07-27T07:00:24.892Z,11.35
2023-07-27T07:02:51.155Z,11.53
2023-07-27T07:05:17.437Z,11.60
2023-07-27T07:07:43.608Z,11.45
2023-07-27T07:10:09.800Z,11.81
2023-07-27T07:12:35.980Z,11.73
2023-07-27T07:15:02.189Z,11.39
2023-07-27T07:17:28.367Z,11.18
2023-07-27T07:19:54.571Z,11.37
2023-07-27T07:22:20.725Z,11.25
2023-07-27T07:24:46.943Z,11.51
2023-07-27T07:27:13.124Z,11.28
2023-07-27T07:29:39.282Z,11.65
2023-07-27T07:32:05.455Z,12.04
2023-07-27T07:34:31.663Z,12.01
2023-07-27T07:36:57.817Z,11.92
2023-07-27T07:39:23.970Z,12.26
2023-07-27T07:41:50.130Z,12.67
2023-07-27T07:44:16.296Z,12.63
2023-07-27T07:46:42.480Z,12.92
2023-07-27T07:49:08.658Z,13.17
2023-07-27T07:51:34.834Z,13.55
2023-07-27T07:54:00.999Z,14.05
2023-07-27T07:56:27.145Z,14.37
2023-07-27T07:58:53.322Z,14.63
2023-07-27T08:01:19.543Z,14.96
2023-07-27T08:03:45.839Z,15.21
2023-07-27T08:06:12.041Z,15.56
2023-07-27T08:08:38.193Z,14.56
2023-07-27T08:11:04.351Z,14.04
2023-07-27T08:13:30.524Z,13.77
2023-07-27T08:15:56.692Z,13.87
2023-07-27T08:18:22.867Z,13.49
2023-07-27T08:20:49.030Z,13.86
2023-07-27T08:23:15.214Z,13.76
2023-07-27T08:25:41.383Z,13.33
2023-07-27T08:28:07.540Z,14.18
2023-07-27T08:30:33.731Z,14.70
2023-07-27T08:33:00.092Z,14.45
2023-07-27T08:35:26.255Z,15.05
2023-07-27T08:37:52.419Z,15.45
2023-07-27T08:40:18.591Z,15.87
2023-07-27T08:42:44.824Z,16.13
2023-07-27T08:45:10.993Z,15.83
2023-07-27T08:47:37.226Z,15.84
2023-07-27T08:50:03.509Z,15.65
2023-07-27T08:52:29.706Z,15.55
2023-07-27T08:54:55.908Z,16.15
2023-07-27T08:57:22.076Z,15.61
2023-07-27T08:59:48.235Z,15.49
2023-07-27T09:02:14.459Z,16.08
2023-07-27T09:04:40.801Z,16.18
2023-07-27T09:07:07.047Z,16.04
2023-07-27T09:09:33.233Z,16.28
2023-07-27T09:11:59.412Z,16.82
2023-07-27T09:14:25.578Z,16.96
2023-07-27T09:16:54.698Z,16.68
2023-07-27T09:19:22.733Z,17.05
2023-07-27T09:21:48.894Z,17.11
2023-07-27T09:24:15.065Z,17.71
2023-07-27T09:26:41.241Z,17.84
2023-07-27T09:29:07.399Z,17.76
2023-07-27T09:31:33.628Z,18.47
2023-07-27T09:33:59.857Z,18.80
2023-07-27T09:36:26.057Z,18.05
2023-07-27T09:38:52.212Z,18.06
2023-07-27T09:41:18.400Z,18.43
2023-07-27T09:43:44.559Z,17.73
2023-07-27T09:46:10.796Z,17.86
2023-07-27T09:48:37.028Z,18.04
2023-07-27T09:51:03.272Z,18.13
2023-07-27T09:53:29.487Z,18.81
2023-07-27T09:55:55.683Z,18.51
2023-07-27T09:58:21.874Z,18.70
2023-07-27T10:00:48.051Z,19.27
2023-07-27T10:03:14.227Z,19.94
2023-07-27T10:05:40.426Z,20.20
2023-07-27T10:08:06.667Z,20.64
2023-07-27T10:10:32.866Z,20.90
2023-07-27T10:12:59.069Z,20.84
2023-07-27T10:15:25.245Z,20.50
2023-07-27T10:17:51.454Z,20.53
2023-07-27T10:20:17.684Z,20.60
2023-07-27T10:22:43.885Z,20.35
2023-07-27T10:25:10.044Z,20.39
2023-07-27T10:27:36.214Z,20.75
2023-07-27T10:30:02.375Z,21.28
2023-07-27T10:32:28.569Z,21.66
2023-07-27T10:34:54.781Z,21.86
2023-07-27T10:37:20.976Z,22.03
2023-07-27T10:39:47.154Z,21.91
2023-07-27T10:42:13.375Z,21.99
2023-07-27T10:44:39.582Z,22.10
2023-07-27T10:47:05.754Z,22.04
2023-07-27T10:49:31.927Z,22.28
2023-07-27T10:51:58.869Z,22.28
2023-07-27T10:54:25.449Z,22.01
2023-07-27T10:56:51.607Z,22.00
2023-07-27T10:59:18.091Z,21.94
2023-07-27T11:01:44.230Z,22.27
2023-07-27T11:04:10.417Z,22.54
2023-07-27T11:06:36.589Z,22.50
2023-07-27T11:09:02.751Z,22.17
2023-07-27T11:11:28.904Z,22.50
2023-07-27T11:13:55.059Z,21.59
2023-07-27T11:16:21.261Z,21.66
2023-07-27T11:18:47.471Z,21.49
2023-07-27T11:21:13.626Z,20.93
2023-07-27T11:23:39.799Z,20.69
2023-07-27T11:26:05.978Z,20.48
2023-07-27T11:28:32.145Z,19.84
2023-07-27T11:30:58.336Z,19.79
2023-07-27T11:33:24.494Z,19.94
2023-07-27T11:35:51.094Z,19.28
2023-07-27T11:38:17.280Z,19.86
2023-07-27T11:40:43.655Z,19.73
2023-07-27T11:43:09.829Z,19.10
2023-07-27T11:45:35.983Z,19.25
2023-07-27T11:48:02.215Z,19.44
2023-07-27T11:50:28.373Z,19.17
2023-07-27T11:52:54.547Z,18.69
2023-07-27T11:55:20.697Z,18.93
2023-07-27T11:57:46.890Z,18.93
2023-07-27T12:00:13.104Z,19.21
2023-07-27T12:02:42.872Z,19.25
2023-07-27T12:05:09.564Z,19.42
2023-07-27T12:15:02.906Z,18.87
2023-07-27T12:24:56.852Z,19.88
2023-07-27T12:27:23.127Z,20.23
2023-07-27T12:29:49.332Z,20.23
2023-07-27T12:32:15.769Z,19.55
2023-07-27T12:39:40.326Z,20.36
2023-07-27T12:44:35.580Z,20.86
2023-07-27T12:47:01.757Z,20.46
2023-07-27T12:49:27.930Z,20.17
2023-07-27T12:51:54.143Z,20.29
2023-07-27T12:54:20.344Z,19.79
2023-07-27T12:56:47.343Z,19.72
2023-07-27T12:59:13.522Z,19.58
2023-07-27T13:01:39.747Z,19.81
2023-07-27T13:04:06.024Z,19.18
2023-07-27T13:06:34.600Z,18.93
2023-07-27T13:09:01.175Z,19.02
2023-07-27T13:11:27.342Z,18.86
2023-07-27T13:13:53.537Z,19.06
2023-07-27T13:16:19.745Z,18.78
2023-07-27T13:18:45.955Z,18.87
2023-07-27T13:21:12.145Z,19.30
2023-07-27T13:23:38.299Z,18.96
2023-07-27T13:26:04.465Z,19.77
2023-07-27T13:28:30.722Z,19.20
2023-07-27T13:30:56.918Z,19.64
2023-07-27T13:33:23.157Z,19.26
2023-07-27T13:35:49.370Z,19.42
2023-07-27T13:38:15.554Z,19.88
2023-07-27T13:40:41.729Z,20.03
2023-07-27T13:43:07.920Z,19.70
2023-07-27T13:45:34.104Z,19.60
2023-07-27T13:48:09.454Z,19.85
2023-07-27T13:50:36.648Z,19.68
2023-07-27T13:53:02.815Z,20.23
2023-07-27T13:55:29.012Z,20.41
2023-07-27T13:57:55.178Z,20.38
2023-07-27T14:00:21.345Z,20.18
2023-07-27T14:02:47.578Z,20.41
2023-07-27T14:05:13.840Z,20.04
2023-07-27T14:07:40.022Z,20.00
2023-07-27T14:10:06.261Z,20.13
2023-07-27T14:12:32.424Z,19.89
2023-07-27T14:14:58.634Z,19.68
2023-07-27T14:17:25.381Z,19.89
2023-07-27T14:19:51.675Z,20.13
2023-07-27T14:22:17.843Z,20.27
2023-07-27T14:24:44.027Z,20.29
2023-07-27T14:27:10.191Z,20.25
2023-07-27T14:29:36.367Z,20.11
2023-07-27T14:32:02.604Z,20.15
2023-07-27T14:34:28.818Z,20.30
2023-07-27T14:36:55.072Z,20.62
2023-07-27T14:39:21.244Z,20.55
2023-07-27T14:41:47.411Z,20.62
2023-07-27T14:44:13.907Z,21.12
2023-07-27T14:46:40.606Z,20.77
2023-07-27T14:49:06.777Z,20.81
2023-07-27T14:51:33.396Z,20.72
2023-07-27T14:54:00.957Z,21.78
2023-07-27T14:56:27.757Z,21.90
2023-07-27T14:58:55.095Z,21.21
2023-07-27T15:01:30.385Z,21.50
2023-07-27T15:03:57.087Z,21.21
2023-07-27T15:06:23.493Z,20.97
2023-07-27T15:08:49.913Z,21.46
2023-07-27T15:13:45.228Z,20.88
2023-07-27T15:16:11.418Z,21.07
2023-07-27T15:18:37.612Z,21.27
2023-07-27T15:21:03.832Z,21.36
2023-07-27T15:23:29.986Z,20.99
2023-07-27T15:25:56.139Z,21.08
2023-07-27T15:28:22.382Z,20.85
2023-07-27T15:30:48.610Z,20.84
2023-07-27T15:33:14.827Z,21.09
2023-07-27T15:35:41.124Z,20.95
2023-07-27T15:38:07.301Z,20.76
2023-07-27T15:40:33.461Z,20.82
2023-07-27T15:42:59.629Z,21.00
2023-07-27T15:45:25.812Z,20.64
2023-07-27T15:47:52.030Z,20.84
2023-07-27T15:50:18.220Z,20.96
2023-07-27T15:52:44.419Z,20.96
2023-07-27T15:55:10.612Z,20.88
2023-07-27T15:57:36.809Z,21.10
2023-07-27T16:00:02.994Z,21.39
2023-07-27T16:02:29.268Z,21.37
2023-07-27T16:04:55.513Z,21.55
2023-07-27T16:07:21.685Z,21.16
2023-07-27T16:09:47.863Z,21.27
2023-07-27T16:12:14.020Z,21.09
2023-07-27T16:14:40.175Z,21.63
2023-07-27T16:17:06.432Z,21.54
2023-07-27T16:19:32.665Z,21.74
2023-07-27T16:21:58.835Z,21.41
2023-07-27T16:24:24.983Z,21.39
2023-07-27T16:26:51.156Z,21.45
2023-07-27T16:29:17.336Z,21.55
2023-07-27T16:31:43.486Z,21.75
2023-07-27T16:34:09.656Z,22.14
2023-07-27T16:36:36.004Z,21.96
2023-07-27T16:39:02.319Z,22.31
2023-07-27T16:41:28.476Z,22.73
2023-07-27T16:43:54.644Z,22.24
2023-07-27T16:46:20.859Z,22.24
2023-07-27T16:48:47.057Z,21.99
2023-07-27T16:51:13.228Z,21.94
2023-07-27T16:53:39.406Z,21.71
2023-07-27T16:56:05.587Z,21.56
2023-07-27T16:58:31.755Z,21.48
2023-07-27T17:00:57.974Z,21.29
2023-07-27T17:03:24.253Z,20.94
2023-07-27T17:05:50.439Z,20.79
2023-07-27T17:08:16.619Z,20.76
2023-07-27T17:10:42.780Z,20.65
2023-07-27T17:13:08.936Z,20.26
2023-07-27T17:15:35.117Z,20.08
2023-07-27T17:18:01.301Z,20.10
2023-07-27T17:20:27.526Z,20.07
2023-07-27T17:22:53.710Z,20.19
2023-07-27T17:25:19.880Z,19.84
2023-07-27T17:27:46.056Z,19.49
2023-07-27T17:30:12.238Z,19.50
2023-07-27T17:32:38.403Z,19.85
2023-07-27T17:35:04.610Z,19.53
2023-07-27T17:37:30.791Z,19.30
2023-07-27T17:39:56.963Z,18.95
2023-07-27T17:42:23.209Z,19.05
2023-07-27T17:44:49.359Z,19.01
2023-07-27T17:47:15.533Z,19.00
2023-07-27T17:49:41.730Z,18.66
2023-07-27T17:52:07.921Z,18.64
2023-07-27T17:54:34.083Z,18.32
2023-07-27T17:57:00.254Z,18.24
2023-07-27T17:59:26.420Z,18.10
2023-07-27T18:01:52.651Z,18.00
2023-07-27T18:04:18.872Z,18.03
2023-07-27T18:06:45.103Z,17.84
2023-07-27T18:09:11.298Z,17.72
2023-07-27T18:11:37.655Z,17.66
2023-07-27T18:14:04.043Z,17.50
2023-07-27T18:16:30.250Z,17.45
2023-07-27T18:18:56.465Z,17.38
2023-07-27T18:21:22.652Z,17.30
2023-07-27T18:23:48.872Z,17.12
2023-07-27T18:26:15.083Z,17.10
2023-07-27T18:28:41.276Z,17.20
2023-07-27T18:31:07.487Z,17.06
2023-07-27T18:33:33.646Z,16.86
2023-07-27T18:35:59.845Z,16.69
2023-07-27T18:38:26.007Z,16.62
2023-07-27T18:40:52.176Z,16.56
2023-07-27T18:43:18.350Z,16.53
2023-07-27T18:45:44.582Z,16.28
2023-07-27T18:48:10.753Z,16.26
2023-07-27T18:50:36.919Z,16.10
2023-07-27T18:53:03.099Z,16.11
2023-07-27T18:55:29.251Z,15.96
2023-07-27T18:57:55.421Z,15.92
2023-07-27T19:00:21.585Z,15.77
2023-07-27T19:02:47.809Z,15.79
2023-07-27T19:05:14.014Z,15.92
2023-07-27T19:07:40.175Z,15.74
2023-07-27T19:10:06.423Z,15.64
2023-07-27T19:12:32.589Z,15.64
2023-07-27T19:14:58.748Z,15.41
2023-07-27T19:17:24.929Z,15.48
2023-07-27T19:19:51.125Z,15.29
2023-07-27T19:22:17.297Z,15.00
2023-07-27T19:24:43.483Z,15.01
2023-07-27T19:27:09.641Z,15.05
2023-07-27T19:29:35.826Z,14.90
2023-07-27T19:32:02.011Z,14.91
2023-07-27T19:34:28.185Z,14.83
2023-07-27T19:36:54.336Z,14.74
2023-07-27T19:39:20.501Z,14.74
2023-07-27T19:41:46.656Z,14.61
2023-07-27T19:44:12.817Z,14.45
2023-07-27T19:46:39.108Z,14.44
2023-07-27T19:49:05.310Z,14.36
2023-07-27T19:51:31.474Z,14.32
2023-07-27T19:53:57.687Z,14.34
2023-07-27T19:56:23.875Z,14.40
2023-07-27T19:58:50.083Z,14.43
2023-07-27T20:01:17.580Z,14.37
2023-07-27T20:03:44.257Z,14.29
2023-07-27T20:06:10.429Z,14.15
2023-07-27T20:08:46.537Z,13.91
2023-07-27T20:11:13.869Z,13.92
2023-07-27T20:13:40.050Z,13.92
2023-07-27T20:16:06.222Z,13.88
2023-07-27T20:18:32.400Z,13.90
2023-07-27T20:20:58.570Z,13.83
2023-07-27T20:23:24.762Z,13.70
2023-07-27T20:25:50.920Z,13.62
2023-07-27T20:28:17.116Z,13.73
2023-07-27T20:30:43.353Z,13.63
2023-07-27T20:33:09.551Z,13.59
2023-07-27T20:35:35.732Z,13.66
2023-07-27T20:38:01.898Z,13.59
2023-07-27T20:40:28.225Z,13.85
2023-07-27T20:42:54.440Z,13.64
2023-07-27T20:45:20.604Z,13.47
2023-07-27T20:47:46.807Z,13.42
2023-07-27T20:50:12.977Z,13.56
2023-07-27T20:52:39.157Z,13.38
2023-07-27T20:55:05.323Z,13.33
2023-07-27T20:57:31.470Z,13.40
2023-07-27T20:59:57.657Z,13.46
2023-07-27T21:02:23.852Z,13.39
2023-07-27T21:04:50.017Z,13.11
2023-07-27T21:07:16.188Z,12.95
2023-07-27T21:09:42.361Z,13.02
2023-07-27T21:12:08.532Z,13.16
2023-07-27T21:14:34.695Z,13.13
2023-07-27T21:17:00.873Z,13.13
2023-07-27T21:19:27.037Z,13.22
2023-07-27T21:21:53.217Z,13.21
2023-07-27T21:24:19.396Z,13.18
2023-07-27T21:26:45.548Z,13.19
2023-07-27T21:29:11.736Z,13.29
2023-07-27T21:31:37.965Z,13.05
2023-07-27T21:34:04.171Z,12.89
2023-07-27T21:36:30.343Z,12.86
2023-07-27T21:38:56.527Z,12.85
2023-07-27T21:41:22.693Z,13.04
2023-07-27T21:43:48.863Z,12.91
2023-07-27T21:46:15.080Z,12.92
2023-07-27T21:48:41.286Z,12.90
2023-07-27T21:51:07.465Z,12.77
2023-07-27T21:53:33.678Z,12.79
2023-07-27T21:56:00.712Z,12.76
2023-07-27T21:58:26.881Z,12.67
2023-07-27T22:00:53.031Z,12.64
2023-07-27T22:03:19.232Z,12.70
2023-07-27T22:05:45.402Z,12.75
2023-07-27T22:08:11.549Z,12.72
2023-07-27T22:10:37.733Z,12.74
2023-07-27T22:13:03.914Z,12.74
2023-07-27T22:15:30.289Z,12.83
2023-07-27T22:17:56.642Z,12.92
2023-07-27T22:20:22.828Z,12.87
2023-07-27T22:22:49.001Z,12.98
2023-07-27T22:25:15.163Z,12.81
2023-07-27T22:27:41.341Z,12.84
2023-07-27T22:30:07.508Z,12.91
2023-07-27T22:32:33.693Z,13.17
2023-07-27T22:34:59.899Z,12.97
2023-07-27T22:37:26.075Z,12.82
2023-07-27T22:39:52.245Z,12.70
2023-07-27T22:42:18.424Z,12.69
2023-07-27T22:44:44.584Z,12.64
2023-07-27T22:47:10.808Z,12.49
2023-07-27T22:49:37.059Z,12.49
2023-07-27T22:52:03.277Z,12.51
2023-07-27T22:54:29.472Z,12.71
2023-07-27T22:56:55.627Z,13.00
2023-07-27T22:59:21.824Z,12.90
2023-07-27T23:01:48.166Z,12.92
2023-07-27T23:04:14.344Z,12.83
2023-07-27T23:06:40.599Z,12.77
2023-07-27T23:09:06.768Z,12.73
2023-07-27T23:11:32.959Z,12.65
2023-07-27T23:13:59.129Z,12.64
2023-07-27T23:16:25.347Z,12.59
2023-07-27T23:18:51.557Z,12.62
2023-07-27T23:21:17.733Z,12.68
2023-07-27T23:23:43.896Z,12.71
2023-07-27T23:26:10.067Z,12.56
2023-07-27T23:28:36.237Z,12.52
2023-07-27T23:31:02.433Z,12.45
2023-07-27T23:33:28.634Z,12.64
2023-07-27T23:35:54.813Z,12.60
2023-07-27T23:38:20.974Z,12.52
2023-07-27T23:40:47.219Z,12.49
2023-07-27T23:43:13.395Z,12.30
2023-07-27T23:45:39.567Z,12.38
2023-07-27T23:48:05.770Z,12.53
2023-07-27T23:50:31.946Z,12.73
2023-07-27T23:52:58.135Z,12.80
2023-07-27T23:55:24.309Z,13.04
2023-07-27T23:57:50.502Z,12.95
